createdAt,value
2023-03-06T00:00:56.189Z,22.83
2023-03-06T00:03:27.879Z,24.60
2023-03-06T00:05:57.692Z,23.30
2023-03-06T00:08:29.398Z,22.88
2023-03-06T00:10:58.077Z,21.20
2023-03-06T00:13:30.054Z,21.23
2023-03-06T00:16:00.566Z,23.00
2023-03-06T00:18:28.630Z,20.52
2023-03-06T00:21:00.889Z,22.30
2023-03-06T00:23:30.391Z,21.73
2023-03-06T00:25:58.274Z,24.25
2023-03-06T00:28:26.276Z,26.17
2023-03-06T00:30:54.199Z,31.00
2023-03-06T00:33:22.161Z,23.83
2023-03-06T00:35:50.092Z,28.25
2023-03-06T00:38:18.112Z,29.30
2023-03-06T00:40:47.381Z,31.70
2023-03-06T00:43:16.974Z,26.05
2023-03-06T00:45:46.290Z,27.58
2023-03-06T00:48:14.294Z,34.42
2023-03-06T00:50:42.215Z,31.10
2023-03-06T00:53:11.181Z,25.83
2023-03-06T00:55:39.079Z,28.90
2023-03-06T00:58:08.392Z,29.23
2023-03-06T01:00:36.374Z,31.15
2023-03-06T01:03:04.328Z,26.10
2023-03-06T01:05:35.473Z,32.80
2023-03-06T01:08:03.423Z,26.27
2023-03-06T01:10:31.387Z,29.17
2023-03-06T01:12:59.480Z,28.40
2023-03-06T01:15:28.811Z,23.50
2023-03-06T01:17:56.837Z,32.30
2023-03-06T01:20:26.749Z,31.73
2023-03-06T01:22:55.587Z,26.90
2023-03-06T01:25:24.270Z,25.75
2023-03-06T01:27:53.590Z,35.30
2023-03-06T01:30:22.099Z,33.45
2023-03-06T01:32:51.458Z,33.10
2023-03-06T01:35:19.760Z,28.48
2023-03-06T01:37:47.883Z,26.27
2023-03-06T01:40:15.843Z,30.63
2023-03-06T01:42:45.815Z,29.35
2023-03-06T01:45:51.897Z,30.15
2023-03-06T01:48:24.410Z,32.22
2023-03-06T01:50:54.484Z,31.08
2023-03-06T01:53:22.556Z,31.33
2023-03-06T01:55:50.669Z,28.27
2023-03-06T01:58:20.571Z,27.98
2023-03-06T02:00:48.643Z,30.52
2023-03-06T02:03:21.606Z,33.95
2023-03-06T02:05:51.010Z,29.07
2023-03-06T02:08:21.295Z,30.08
2023-03-06T02:10:59.018Z,38.22
2023-03-06T02:13:27.031Z,30.40
2023-03-06T02:15:55.077Z,30.83
2023-03-06T02:18:23.100Z,34.85
2023-03-06T02:20:55.198Z,36.78
2023-03-06T02:23:31.562Z,30.65
2023-03-06T02:26:03.137Z,31.35
2023-03-06T02:28:31.133Z,31.10
2023-03-06T02:30:59.102Z,31.48
2023-03-06T02:33:29.624Z,30.40
2023-03-06T02:36:00.345Z,32.72
2023-03-06T02:38:31.100Z,32.03
2023-03-06T02:41:02.673Z,29.08
2023-03-06T02:43:35.353Z,30.50
2023-03-06T02:46:03.741Z,30.33
2023-03-06T02:48:31.675Z,25.33
2023-03-06T02:50:59.615Z,27.25
2023-03-06T02:53:27.665Z,25.25
2023-03-06T02:55:55.610Z,34.13
2023-03-06T02:58:24.890Z,24.35
2023-03-06T03:00:52.782Z,27.67
2023-03-06T03:03:20.799Z,28.50
2023-03-06T03:05:48.704Z,30.92
2023-03-06T03:08:16.796Z,25.33
2023-03-06T03:10:44.783Z,28.92
2023-03-06T03:13:12.724Z,30.33
2023-03-06T03:15:42.348Z,25.88
2023-03-06T03:18:11.894Z,28.00
2023-03-06T03:20:43.872Z,29.98
2023-03-06T03:23:11.815Z,31.58
2023-03-06T03:25:39.785Z,28.88
2023-03-06T03:28:07.831Z,27.05
2023-03-06T03:30:35.835Z,31.77
2023-03-06T03:33:05.215Z,29.45
2023-03-06T03:35:33.234Z,29.92
2023-03-06T03:38:01.339Z,34.17
2023-03-06T03:40:29.360Z,38.15
2023-03-06T03:42:57.290Z,31.52
2023-03-06T03:45:25.741Z,42.83
2023-03-06T03:47:53.656Z,42.05
2023-03-06T03:50:23.086Z,38.65
2023-03-06T03:52:51.057Z,42.38
2023-03-06T03:55:19.101Z,39.40
2023-03-06T03:57:46.996Z,50.17
2023-03-06T04:00:16.775Z,52.40
2023-03-06T04:02:45.392Z,50.95
2023-03-06T04:05:15.026Z,52.67
2023-03-06T04:07:44.825Z,49.85
2023-03-06T04:10:13.564Z,53.30
2023-03-06T04:12:41.532Z,54.05
2023-03-06T04:15:10.247Z,53.00
2023-03-06T04:17:38.238Z,59.83
2023-03-06T04:20:07.006Z,63.75
2023-03-06T04:22:34.908Z,57.85
2023-03-06T04:25:04.347Z,64.13
2023-03-06T04:27:32.328Z,60.50
2023-03-06T04:30:00.307Z,49.00
2023-03-06T04:32:28.381Z,60.08
2023-03-06T04:34:56.483Z,54.45
2023-03-06T04:37:26.563Z,58.38
2023-03-06T04:39:54.876Z,61.10
2023-03-06T04:42:24.229Z,65.88
2023-03-06T04:44:52.202Z,59.50
2023-03-06T04:47:20.427Z,62.08
2023-03-06T04:49:48.524Z,45.15
2023-03-06T04:52:16.462Z,44.75
2023-03-06T04:54:46.084Z,35.00
2023-03-06T04:57:14.339Z,32.97
2023-03-06T04:59:43.647Z,39.58
2023-03-06T05:02:11.603Z,37.03
2023-03-06T05:04:39.540Z,45.38
2023-03-06T05:07:07.517Z,45.60
2023-03-06T05:09:37.165Z,51.90
2023-03-06T05:12:06.595Z,48.70
2023-03-06T05:14:34.817Z,44.85
2023-03-06T05:17:04.136Z,39.92
2023-03-06T05:19:32.465Z,41.58
2023-03-06T05:22:00.431Z,41.08
2023-03-06T05:24:28.507Z,37.13
2023-03-06T05:26:56.456Z,59.58
2023-03-06T05:29:24.374Z,60.47
2023-03-06T05:31:52.343Z,72.38
2023-03-06T05:34:21.711Z,65.22
2023-03-06T05:36:49.613Z,59.40
2023-03-06T05:39:17.895Z,66.82
2023-03-06T05:41:45.888Z,70.20
2023-03-06T05:44:13.836Z,57.67
2023-03-06T05:46:41.763Z,61.88
2023-03-06T05:49:09.687Z,65.85
2023-03-06T05:51:38.980Z,62.47
2023-03-06T05:54:06.927Z,65.90
2023-03-06T05:56:34.886Z,71.95
2023-03-06T05:59:02.785Z,57.22
2023-03-06T06:01:30.683Z,62.85
2023-03-06T06:03:58.620Z,68.55
2023-03-06T06:06:26.866Z,61.28
2023-03-06T06:08:56.216Z,52.75
2023-03-06T06:11:24.138Z,52.45
2023-03-06T06:13:52.318Z,47.35
2023-03-06T06:16:26.400Z,49.38
2023-03-06T06:18:54.327Z,57.08
2023-03-06T06:21:22.229Z,40.58
2023-03-06T06:23:50.148Z,51.08
2023-03-06T06:26:47.934Z,47.28
2023-03-06T06:29:15.906Z,45.20
2023-03-06T06:31:43.905Z,49.20
2023-03-06T06:34:15.235Z,37.47
2023-03-06T06:36:43.450Z,40.30
2023-03-06T06:39:14.791Z,40.00
2023-03-06T06:41:57.250Z,36.35
2023-03-06T06:44:29.030Z,32.42
2023-03-06T06:47:21.859Z,39.70
2023-03-06T06:49:46.547Z,41.33
2023-03-06T06:52:14.481Z,35.65
2023-03-06T06:54:42.368Z,33.65
2023-03-06T06:57:11.711Z,36.88
2023-03-06T06:59:41.066Z,34.92
2023-03-06T07:02:09.206Z,30.67
2023-03-06T07:04:37.102Z,38.58
2023-03-06T07:07:05.008Z,40.78
2023-03-06T07:09:32.964Z,41.25
2023-03-06T07:12:01.122Z,35.80
2023-03-06T07:14:29.016Z,40.55
2023-03-06T07:16:58.567Z,35.08
2023-03-06T07:19:27.237Z,34.88
2023-03-06T07:21:55.273Z,40.00
2023-03-06T07:24:23.159Z,44.70
2023-03-06T07:26:51.060Z,32.88
2023-03-06T07:29:19.513Z,29.02
2023-03-06T07:31:47.450Z,39.28
2023-03-06T07:34:16.884Z,41.08
2023-03-06T07:36:44.823Z,34.88
2023-03-06T07:39:12.724Z,33.72
2023-03-06T07:41:40.672Z,39.25
2023-03-06T07:44:08.555Z,36.70
2023-03-06T07:46:36.926Z,38.10
2023-03-06T07:49:04.883Z,36.50
2023-03-06T07:51:34.241Z,44.28
2023-03-06T07:54:02.152Z,35.05
2023-03-06T07:56:30.092Z,44.13
2023-03-06T07:58:58.086Z,36.33
2023-03-06T08:01:26.091Z,43.85
2023-03-06T08:03:54.679Z,30.85
2023-03-06T08:06:24.728Z,36.25
2023-03-06T08:08:56.617Z,38.60
2023-03-06T08:11:26.330Z,38.85
2023-03-06T08:13:55.015Z,43.95
2023-03-06T08:16:24.908Z,33.42
2023-03-06T08:18:53.004Z,33.88
2023-03-06T08:21:24.712Z,31.10
2023-03-06T08:23:54.470Z,43.60
2023-03-06T08:26:23.896Z,36.72
2023-03-06T08:28:52.931Z,34.88
2023-03-06T08:31:26.808Z,38.85
2023-03-06T08:36:24.020Z,33.40
2023-03-06T08:38:54.035Z,37.45
2023-03-06T08:41:22.508Z,39.05
2023-03-06T08:43:50.946Z,37.75
2023-03-06T08:46:19.881Z,36.72
2023-03-06T08:48:48.457Z,43.15
2023-03-06T08:51:17.339Z,42.03
2023-03-06T08:53:45.967Z,39.42
2023-03-06T08:56:20.075Z,27.73
2023-03-06T08:58:48.452Z,30.58
2023-03-06T09:01:18.480Z,35.40
2023-03-06T09:03:46.800Z,38.47
2023-03-06T09:06:15.166Z,34.60
2023-03-06T09:08:44.627Z,36.47
2023-03-06T09:11:13.583Z,32.88
2023-03-06T09:13:43.478Z,31.80
2023-03-06T09:16:12.693Z,31.08
2023-03-06T09:18:40.702Z,32.47
2023-03-06T09:21:09.197Z,36.53
2023-03-06T09:23:39.561Z,31.85
2023-03-06T09:26:08.338Z,25.17
2023-03-06T09:28:39.102Z,32.28
2023-03-06T09:31:10.845Z,34.30
2023-03-06T09:33:39.406Z,34.65
2023-03-06T09:36:09.306Z,22.60
2023-03-06T09:38:37.318Z,29.27
2023-03-06T09:43:39.354Z,20.98
2023-03-06T09:46:20.534Z,32.90
2023-03-06T09:49:01.608Z,29.70
2023-03-06T09:51:39.271Z,32.45
2023-03-06T09:54:13.696Z,35.75
2023-03-06T09:56:47.311Z,28.55
2023-03-06T09:59:21.146Z,30.73
2023-03-06T10:01:59.946Z,36.28
2023-03-06T10:04:40.262Z,30.35
2023-03-06T10:07:15.907Z,27.63
2023-03-06T10:09:49.438Z,29.10
2023-03-06T10:12:26.107Z,35.10
2023-03-06T10:15:08.102Z,30.50
2023-03-06T10:17:43.178Z,31.05
2023-03-06T10:20:20.229Z,33.22
2023-03-06T10:23:11.194Z,32.65
2023-03-06T10:25:49.388Z,33.25
2023-03-06T10:28:22.210Z,34.38
2023-03-06T10:30:58.080Z,32.35
2023-03-06T10:33:38.853Z,32.78
2023-03-06T10:36:07.506Z,33.50
2023-03-06T10:38:37.834Z,35.50
2023-03-06T10:41:09.770Z,30.83
2023-03-06T10:43:39.964Z,27.65
2023-03-06T10:46:09.111Z,29.20
2023-03-06T10:48:42.008Z,23.80
2023-03-06T10:51:19.185Z,28.10
2023-03-06T10:53:52.930Z,26.63
2023-03-06T10:56:33.079Z,27.13
2023-03-06T10:59:09.533Z,23.42
2023-03-06T11:01:37.633Z,23.33
2023-03-06T11:04:27.624Z,19.70
2023-03-06T11:07:14.177Z,23.90
2023-03-06T11:09:43.754Z,154.05
2023-03-06T11:12:26.517Z,20.88
2023-03-06T11:15:18.369Z,20.75
2023-03-06T11:17:52.961Z,20.60
2023-03-06T11:20:25.023Z,23.75
2023-03-06T11:22:56.936Z,18.88
2023-03-06T11:25:29.260Z,23.50
2023-03-06T11:28:01.532Z,24.02
2023-03-06T11:30:36.016Z,24.58
2023-03-06T11:33:12.620Z,22.08
2023-03-06T11:35:50.736Z,17.45
2023-03-06T11:38:23.551Z,15.55
2023-03-06T11:40:55.069Z,20.33
2023-03-06T11:43:29.202Z,21.27
2023-03-06T11:46:02.793Z,22.50
2023-03-06T11:48:36.534Z,24.67
2023-03-06T11:51:12.668Z,19.13
2023-03-06T11:53:41.862Z,20.92
2023-03-06T11:56:29.962Z,18.13
2023-03-06T11:59:22.246Z,14.15
2023-03-06T12:02:01.266Z,16.60
2023-03-06T12:04:49.611Z,18.33
2023-03-06T12:07:26.558Z,22.92
2023-03-06T12:09:58.727Z,14.35
2023-03-06T12:12:54.450Z,15.63
2023-03-06T12:15:43.860Z,18.05
2023-03-06T12:18:32.388Z,11.75
2023-03-06T12:21:08.271Z,20.88
2023-03-06T12:24:00.166Z,22.70
2023-03-06T12:26:55.068Z,18.05
2023-03-06T12:29:41.584Z,13.90
2023-03-06T12:32:17.778Z,15.60
2023-03-06T12:35:08.852Z,18.17
2023-03-06T12:37:49.455Z,10.73
2023-03-06T12:40:43.914Z,12.32
2023-03-06T12:45:52.388Z,18.05
2023-03-06T12:48:23.728Z,11.65
2023-03-06T12:50:52.324Z,36.05
2023-03-06T12:53:28.106Z,17.17
2023-03-06T12:55:59.409Z,13.15
2023-03-06T12:58:47.590Z,9.85
2023-03-06T13:01:24.116Z,18.05
2023-03-06T13:04:06.644Z,10.32
2023-03-06T13:06:51.342Z,12.77
2023-03-06T13:09:26.594Z,14.88
2023-03-06T13:14:55.211Z,13.68
2023-03-06T13:20:35.174Z,12.80
2023-03-06T13:23:42.713Z,10.35
2023-03-06T13:26:12.993Z,13.27
2023-03-06T13:28:46.511Z,15.88
2023-03-06T13:31:26.486Z,14.75
2023-03-06T13:33:58.814Z,10.13
2023-03-06T14:05:46.219Z,14.68
2023-03-06T14:08:17.542Z,12.93
2023-03-06T14:10:47.834Z,11.38
2023-03-06T14:13:18.472Z,11.95
2023-03-06T14:15:48.487Z,14.43
2023-03-06T14:18:25.035Z,12.50
2023-03-06T14:20:58.311Z,13.60
2023-03-06T14:23:30.165Z,16.25
2023-03-06T14:26:15.199Z,16.17
2023-03-06T14:28:44.912Z,14.18
2023-03-06T14:31:20.314Z,11.50
2023-03-06T14:33:52.819Z,14.60
2023-03-06T14:36:29.723Z,15.07
2023-03-06T14:39:01.104Z,12.05
2023-03-06T14:41:31.994Z,14.75
2023-03-06T14:44:10.779Z,14.50
2023-03-06T14:46:39.140Z,22.95
2023-03-06T14:49:11.926Z,17.27
2023-03-06T14:51:46.803Z,15.70
2023-03-06T14:54:20.809Z,29.25
2023-03-06T14:56:53.767Z,16.25
2023-03-06T14:59:29.379Z,12.83
2023-03-06T15:02:00.435Z,11.32
2023-03-06T15:04:33.008Z,18.75
2023-03-06T15:07:09.783Z,18.08
2023-03-06T15:09:41.947Z,17.13
2023-03-06T15:12:35.853Z,16.33
2023-03-06T15:15:27.305Z,15.10
2023-03-06T15:17:56.441Z,20.70
2023-03-06T15:20:43.084Z,13.15
2023-03-06T15:23:23.041Z,18.60
2023-03-06T15:25:58.439Z,14.88
2023-03-06T15:28:32.584Z,18.00
2023-03-06T15:31:17.611Z,20.27
2023-03-06T15:33:46.388Z,13.68
2023-03-06T15:36:27.608Z,15.70
2023-03-06T15:38:58.505Z,16.17
2023-03-06T15:41:36.845Z,13.52
2023-03-06T15:44:12.495Z,16.77
2023-03-06T15:46:40.571Z,14.45
2023-03-06T15:49:15.705Z,14.73
2023-03-06T15:51:43.751Z,20.30
2023-03-06T15:54:13.177Z,13.43
2023-03-06T15:56:43.493Z,19.67
2023-03-06T15:59:17.011Z,14.80
2023-03-06T16:01:44.966Z,13.13
2023-03-06T16:04:14.018Z,17.35
2023-03-06T16:06:42.045Z,17.83
2023-03-06T16:09:10.693Z,18.33
2023-03-06T16:11:44.328Z,14.10
2023-03-06T16:14:21.460Z,19.67
2023-03-06T16:16:49.778Z,17.92
2023-03-06T16:19:26.002Z,16.75
2023-03-06T16:21:55.317Z,16.48
2023-03-06T16:24:23.285Z,16.20
2023-03-06T16:26:54.969Z,16.83
2023-03-06T16:29:24.709Z,15.00
2023-03-06T16:31:52.942Z,23.00
2023-03-06T16:34:20.852Z,18.98
2023-03-06T16:36:49.744Z,14.07
2023-03-06T16:39:19.680Z,14.98
2023-03-06T16:41:47.610Z,18.38
2023-03-06T16:44:16.954Z,21.17
2023-03-06T16:46:47.111Z,19.85
2023-03-06T16:49:17.714Z,16.48
2023-03-06T16:51:45.822Z,14.65
2023-03-06T16:54:13.997Z,16.55
2023-03-06T16:56:42.403Z,17.02
2023-03-06T16:59:10.748Z,13.52
2023-03-06T17:01:42.700Z,19.98
2023-03-06T17:04:11.514Z,20.63
2023-03-06T17:06:40.031Z,23.30
2023-03-06T17:09:08.518Z,15.20
2023-03-06T17:11:38.706Z,15.98
2023-03-06T17:14:07.179Z,18.30
2023-03-06T17:16:37.063Z,13.57
2023-03-06T17:22:04.878Z,21.15
2023-03-06T17:24:32.930Z,16.30
2023-03-06T17:27:00.950Z,18.13
2023-03-06T17:29:28.963Z,17.75
2023-03-06T17:31:56.932Z,21.48
2023-03-06T17:34:26.284Z,15.63
2023-03-06T17:36:54.212Z,14.90
2023-03-06T17:39:22.178Z,18.85
2023-03-06T17:41:50.238Z,20.73
2023-03-06T17:44:19.775Z,13.93
2023-03-06T17:46:47.756Z,18.67
2023-03-06T17:49:16.465Z,19.40
2023-03-06T17:51:45.861Z,26.98
2023-03-06T17:54:13.733Z,27.73
2023-03-06T17:56:41.610Z,17.77
2023-03-06T17:59:09.656Z,21.15
2023-03-06T18:01:37.858Z,17.50
2023-03-06T18:04:06.212Z,22.85
2023-03-06T18:06:34.903Z,16.35
2023-03-06T18:09:05.295Z,20.77
2023-03-06T18:11:33.735Z,18.90
2023-03-06T18:14:03.206Z,17.27
2023-03-06T18:16:32.460Z,19.05
2023-03-06T18:19:00.489Z,19.25
2023-03-06T18:21:28.447Z,18.15
2023-03-06T18:23:58.800Z,17.00
2023-03-06T18:26:29.525Z,17.13
2023-03-06T18:28:59.117Z,20.30
2023-03-06T18:31:29.510Z,22.20
2023-03-06T18:33:59.646Z,18.15
2023-03-06T18:36:29.648Z,24.92
2023-03-06T18:38:58.459Z,20.70
2023-03-06T18:41:27.989Z,17.70
2023-03-06T18:43:57.722Z,19.77
2023-03-06T18:46:27.413Z,15.38
2023-03-06T18:48:56.508Z,19.70
2023-03-06T18:51:24.702Z,18.92
2023-03-06T18:53:52.697Z,16.42
2023-03-06T18:59:23.914Z,18.00
2023-03-06T19:01:57.941Z,27.42
2023-03-06T19:06:54.649Z,17.30
2023-03-06T19:09:23.000Z,19.42
2023-03-06T19:11:54.723Z,17.55
2023-03-06T19:14:22.821Z,19.58
2023-03-06T19:16:51.017Z,19.67
2023-03-06T19:19:26.532Z,16.73
2023-03-06T19:21:54.991Z,19.92
2023-03-06T19:24:22.881Z,20.70
2023-03-06T19:26:52.352Z,16.77
2023-03-06T19:29:20.293Z,21.88
2023-03-06T19:31:49.009Z,19.77
2023-03-06T19:34:16.881Z,18.77
2023-03-06T19:36:44.752Z,15.50
2023-03-06T19:39:13.053Z,15.70
2023-03-06T19:41:40.918Z,17.25
2023-03-06T19:44:12.321Z,24.48
2023-03-06T19:46:40.801Z,19.77
2023-03-06T19:49:12.203Z,16.00
2023-03-06T19:51:40.137Z,23.85
2023-03-06T19:54:08.061Z,23.17
2023-03-06T19:56:35.942Z,13.55
2023-03-06T19:59:03.878Z,20.85
2023-03-06T20:01:34.329Z,19.92
2023-03-06T20:04:03.371Z,18.63
2023-03-06T20:06:34.309Z,21.77
2023-03-06T20:09:03.224Z,17.98
2023-03-06T20:11:31.986Z,18.70
2023-03-06T20:14:01.370Z,19.38
2023-03-06T20:16:30.481Z,15.63
2023-03-06T20:19:00.751Z,21.15
2023-03-06T20:21:30.029Z,23.52
2023-03-06T20:23:58.831Z,16.73
2023-03-06T20:26:27.793Z,14.95
2023-03-06T20:28:56.112Z,18.83
2023-03-06T20:31:25.816Z,18.85
2023-03-06T20:33:55.205Z,18.38
2023-03-06T20:36:27.293Z,22.63
2023-03-06T20:38:55.530Z,20.83
2023-03-06T20:41:26.048Z,17.83
2023-03-06T20:43:54.650Z,17.65
2023-03-06T20:46:23.990Z,16.98
2023-03-06T20:48:53.142Z,18.33
2023-03-06T20:51:22.292Z,27.48
2023-03-06T20:53:53.540Z,21.35
2023-03-06T20:56:23.740Z,22.05
2023-03-06T20:58:51.802Z,17.70
2023-03-06T21:01:21.191Z,22.48
2023-03-06T21:03:49.275Z,20.05
2023-03-06T21:06:17.629Z,17.30
2023-03-06T21:08:45.662Z,25.13
2023-03-06T21:11:14.937Z,17.52
2023-03-06T21:13:43.125Z,20.02
2023-03-06T21:16:12.913Z,22.50
2023-03-06T21:18:41.047Z,19.90
2023-03-06T21:21:10.171Z,17.52
2023-03-06T21:23:38.584Z,21.75
2023-03-06T21:26:07.119Z,19.45
2023-03-06T21:28:36.412Z,21.00
2023-03-06T21:31:07.770Z,20.58
2023-03-06T21:33:35.763Z,21.48
2023-03-06T21:36:04.449Z,19.45
2023-03-06T21:38:32.451Z,17.67
2023-03-06T21:41:07.963Z,22.90
2023-03-06T21:43:37.208Z,21.95
2023-03-06T21:46:05.326Z,20.08
2023-03-06T21:48:33.345Z,17.25
2023-03-06T21:51:12.118Z,19.60
2023-03-06T21:53:42.700Z,15.55
2023-03-06T21:56:11.514Z,21.58
2023-03-06T21:58:41.034Z,19.52
2023-03-06T22:01:13.175Z,17.73
2023-03-06T22:03:41.420Z,25.38
2023-03-06T22:06:11.309Z,17.52
2023-03-06T22:08:39.583Z,23.25
2023-03-06T22:11:08.760Z,20.58
2023-03-06T22:13:36.868Z,19.85
2023-03-06T22:16:07.195Z,19.77
2023-03-06T22:18:36.101Z,19.73
2023-03-06T22:21:08.313Z,18.90
2023-03-06T22:23:36.217Z,25.67
2023-03-06T22:26:05.154Z,20.65
2023-03-06T22:28:33.515Z,25.83
2023-03-06T22:31:07.356Z,19.60
2023-03-06T22:36:06.277Z,25.70
2023-03-06T22:38:34.747Z,19.92
2023-03-06T22:41:02.761Z,20.75
2023-03-06T22:43:30.863Z,23.20
2023-03-06T22:46:01.987Z,25.30
2023-03-06T22:48:31.401Z,20.85
2023-03-06T22:51:03.614Z,26.95
2023-03-06T22:53:32.932Z,31.15
2023-03-06T22:56:01.723Z,22.02
2023-03-06T22:58:34.374Z,26.00
2023-03-06T23:01:06.472Z,25.30
2023-03-06T23:03:36.247Z,21.88
2023-03-06T23:06:07.192Z,27.15
2023-03-06T23:08:35.110Z,19.63
2023-03-06T23:11:03.396Z,20.35
2023-03-06T23:13:31.302Z,21.98
2023-03-06T23:16:03.642Z,28.73
2023-03-06T23:18:31.695Z,25.55
2023-03-06T23:21:01.042Z,22.85
2023-03-06T23:23:28.947Z,22.95
2023-03-06T23:26:00.250Z,20.48
2023-03-06T23:28:28.872Z,19.55
2023-03-06T23:30:56.822Z,20.15
2023-03-06T23:33:24.801Z,20.75
2023-03-06T23:35:52.788Z,25.20
2023-03-06T23:38:22.051Z,19.23
2023-03-06T23:40:50.148Z,26.77
2023-03-06T23:43:18.040Z,27.10
2023-03-06T23:45:54.944Z,20.30
2023-03-06T23:48:22.877Z,21.85
2023-03-06T23:50:51.254Z,19.27
2023-03-06T23:53:19.174Z,22.42
2023-03-06T23:55:50.246Z,21.25
2023-03-06T23:58:19.994Z,20.58
